Time;durP1;ratioP1;P1;durP2;ratioP2;P2;SDS_P1;SDS_P2;PMS_P1;PMS_P2;Temp;Humidity;BMP_temperature;BMP_pressure;BME280_temperature;BME280_humidity;BME280_pressure;Samples;Min_cycle;Max_cycle;Signal;HPM_P1;HPM_P2
2022/07/07 00:00:23;;;;;;;3.85;1.70;;;19.70;90.20;;;;;;5085048;28;20033;-86
2022/07/07 00:02:48;;;;;;;4.32;1.90;;;19.70;90.30;;;;;;5068964;28;20040;-85
2022/07/07 00:05:14;;;;;;;5.40;1.70;;;19.70;90.70;;;;;;5069399;28;20040;-85
2022/07/07 00:07:40;;;;;;;4.80;1.70;;;19.70;90.60;;;;;;5068681;28;20644;-85
2022/07/07 00:10:06;;;;;;;5.50;2.10;;;19.60;90.70;;;;;;5067967;28;20025;-85
2022/07/07 00:12:32;;;;;;;3.55;1.98;;;19.60;90.80;;;;;;5068013;28;20120;-86
2022/07/07 00:14:58;;;;;;;3.42;1.60;;;19.60;90.90;;;;;;5069203;28;20127;-86
2022/07/07 00:17:24;;;;;;;3.20;1.50;;;19.60;91.00;;;;;;5084306;28;20024;-86
2022/07/07 00:19:50;;;;;;;6.25;1.70;;;19.60;91.10;;;;;;5069259;28;20051;-86
2022/07/07 00:22:16;;;;;;;3.92;1.50;;;19.60;91.40;;;;;;5068633;28;20052;-86
2022/07/07 00:24:42;;;;;;;4.13;1.58;;;19.60;91.40;;;;;;5084829;28;20036;-86
2022/07/07 00:27:08;;;;;;;3.90;1.60;;;19.60;91.50;;;;;;5069031;28;20028;-86
2022/07/07 00:29:33;;;;;;;4.80;1.80;;;19.60;91.60;;;;;;5067881;28;20033;-86
2022/07/07 00:31:59;;;;;;;5.70;1.85;;;19.50;91.80;;;;;;5072403;28;20040;-86
2022/07/07 00:34:25;;;;;;;3.58;1.60;;;19.50;92.00;;;;;;5088599;28;20090;-86
2022/07/07 00:36:51;;;;;;;4.22;1.60;;;19.50;92.10;;;;;;5071187;28;20101;-85
2022/07/07 00:39:18;;;;;;;4.07;1.60;;;19.50;92.20;;;;;;5072542;28;20115;-86
2022/07/07 00:41:44;;;;;;;2.75;1.50;;;19.50;92.30;;;;;;5073186;28;20028;-86
2022/07/07 00:44:12;;;;;;;3.80;1.70;;;19.50;92.30;;;;;;5071235;28;20105;-86
2022/07/07 00:46:43;;;;;;;5.90;2.90;;;19.50;92.50;;;;;;5072661;28;20033;-85
2022/07/07 00:49:11;;;;;;;3.22;1.67;;;19.50;92.60;;;;;;5071111;28;20036;-85
2022/07/07 00:51:37;;;;;;;4.93;2.08;;;19.50;92.70;;;;;;5088213;28;20505;-85
2022/07/07 00:54:03;;;;;;;4.70;1.80;;;19.50;92.80;;;;;;5071758;28;20123;-86
2022/07/07 00:56:28;;;;;;;5.07;2.47;;;19.40;92.90;;;;;;5088143;28;20108;-85
2022/07/07 00:58:54;;;;;;;6.07;2.10;;;19.40;92.90;;;;;;5087860;28;20054;-86
2022/07/07 01:01:20;;;;;;;3.42;1.90;;;19.50;93.10;;;;;;5072406;28;20047;-85
2022/07/07 01:03:46;;;;;;;4.05;2.03;;;19.40;93.20;;;;;;5072073;28;20473;-85
2022/07/07 01:06:13;;;;;;;4.63;1.40;;;19.50;93.50;;;;;;5072145;28;20028;-85
2022/07/07 01:08:39;;;;;;;4.80;1.70;;;19.50;93.30;;;;;;5071582;28;20031;-85
2022/07/07 01:11:05;;;;;;;6.53;2.33;;;19.40;93.40;;;;;;5072353;28;20055;-86
2022/07/07 01:13:31;;;;;;;5.57;2.50;;;19.40;93.40;;;;;;5087660;28;20152;-85
2022/07/07 01:15:56;;;;;;;6.43;2.30;;;19.40;93.40;;;;;;5087689;28;20212;-86
2022/07/07 01:18:22;;;;;;;6.53;2.90;;;19.40;93.40;;;;;;5070711;28;20032;-85
2022/07/07 01:20:48;;;;;;;7.05;3.05;;;19.40;93.40;;;;;;5070793;28;20024;-86
2022/07/07 01:23:14;;;;;;;6.43;3.17;;;19.40;93.50;;;;;;5070018;28;20041;-86
2022/07/07 01:25:41;;;;;;;8.02;3.83;;;19.40;93.70;;;;;;5087548;28;20049;-85
2022/07/07 01:28:07;;;;;;;6.63;3.60;;;19.40;93.70;;;;;;5070455;28;20032;-85
2022/07/07 01:30:33;;;;;;;6.82;3.63;;;19.40;93.80;;;;;;5071715;28;20402;-86
2022/07/07 01:32:59;;;;;;;5.95;3.75;;;19.40;93.90;;;;;;5070285;28;20035;-86
2022/07/07 01:35:25;;;;;;;8.30;3.75;;;19.40;93.90;;;;;;5072072;28;20107;-86
2022/07/07 01:37:51;;;;;;;9.60;4.30;;;19.40;94.00;;;;;;5086453;28;20028;-85
2022/07/07 01:40:16;;;;;;;9.57;4.78;;;19.40;94.20;;;;;;5071882;28;20199;-86
2022/07/07 01:42:42;;;;;;;8.27;4.30;;;19.40;94.20;;;;;;5071408;28;20494;-87
2022/07/07 01:45:09;;;;;;;7.90;4.45;;;19.40;94.30;;;;;;5070208;28;20071;-86
2022/07/07 01:47:34;;;;;;;6.93;3.97;;;19.40;94.30;;;;;;5071315;28;20037;-85
2022/07/07 01:50:00;;;;;;;10.63;4.88;;;19.40;94.40;;;;;;5071763;28;20466;-85
2022/07/07 01:52:26;;;;;;;6.95;3.67;;;19.40;94.40;;;;;;5069613;28;20081;-86
2022/07/07 01:54:52;;;;;;;7.63;3.80;;;19.40;94.40;;;;;;5071879;28;20044;-86
2022/07/07 01:57:18;;;;;;;7.07;3.90;;;19.40;94.40;;;;;;5070233;28;20028;-86
2022/07/07 01:59:44;;;;;;;12.07;4.57;;;19.40;94.50;;;;;;5071379;28;20120;-86
2022/07/07 02:02:09;;;;;;;6.20;3.97;;;19.40;94.50;;;;;;5071550;28;20074;-86
2022/07/07 02:04:35;;;;;;;9.40;3.50;;;19.40;94.60;;;;;;5070450;28;20170;-86
2022/07/07 02:07:01;;;;;;;6.47;3.80;;;19.40;94.60;;;;;;5086386;28;20481;-85
2022/07/07 02:09:27;;;;;;;7.97;3.78;;;19.40;94.70;;;;;;5071149;28;20490;-86
2022/07/07 02:11:53;;;;;;;8.32;4.18;;;19.40;94.60;;;;;;5071414;28;20033;-86
2022/07/07 02:14:19;;;;;;;5.93;3.38;;;19.40;94.70;;;;;;5070005;28;20381;-86
2022/07/07 02:16:47;;;;;;;7.72;3.50;;;19.40;94.80;;;;;;5071241;28;20031;-86
2022/07/07 02:19:13;;;;;;;7.95;3.72;;;19.40;94.90;;;;;;5070831;28;20400;-85
2022/07/07 02:21:39;;;;;;;6.85;3.50;;;19.40;95.00;;;;;;5071403;28;20567;-85
2022/07/07 02:24:05;;;;;;;6.35;3.72;;;19.40;95.10;;;;;;5070431;28;20370;-85
2022/07/07 02:26:33;;;;;;;7.38;3.72;;;19.40;95.10;;;;;;5069804;28;20040;-85
2022/07/07 02:28:58;;;;;;;6.47;3.40;;;19.30;95.10;;;;;;5068939;28;20345;-85
2022/07/07 02:31:24;;;;;;;5.03;3.00;;;19.40;95.30;;;;;;5069575;28;20032;-85
2022/07/07 02:33:50;;;;;;;11.10;3.58;;;19.30;95.40;;;;;;5070519;28;20025;-85
2022/07/07 02:36:16;;;;;;;7.97;3.88;;;19.30;95.50;;;;;;5071101;28;20028;-86
2022/07/07 02:38:42;;;;;;;4.75;3.17;;;19.30;95.60;;;;;;5069896;28;20481;-86
2022/07/07 02:41:08;;;;;;;7.00;3.65;;;19.40;95.80;;;;;;5086435;28;20112;-86
2022/07/07 02:43:34;;;;;;;6.35;3.53;;;19.30;96.30;;;;;;5070357;28;20032;-86
2022/07/07 02:46:00;;;;;;;5.82;3.20;;;19.30;96.20;;;;;;5070479;28;20071;-86
2022/07/07 02:48:27;;;;;;;4.40;3.15;;;19.30;96.70;;;;;;5068933;28;20029;-86
2022/07/07 02:50:53;;;;;;;4.38;3.08;;;19.30;96.90;;;;;;5070209;28;20052;-86
2022/07/07 02:53:20;;;;;;;6.40;3.35;;;19.20;97.00;;;;;;5068555;28;20068;-85
2022/07/07 02:55:46;;;;;;;7.20;3.40;;;19.20;97.00;;;;;;5085716;28;20050;-85
2022/07/07 02:58:19;;;;;;;5.90;2.90;;;19.30;97.10;;;;;;5085560;28;20446;-86
2022/07/07 03:00:46;;;;;;;6.95;3.33;;;19.20;97.00;;;;;;5085840;28;20090;-86
2022/07/07 03:03:12;;;;;;;5.45;3.13;;;19.20;97.00;;;;;;5068403;28;20072;-86
2022/07/07 03:05:38;;;;;;;5.32;3.33;;;19.20;97.00;;;;;;5069634;28;20048;-85
2022/07/07 03:08:04;;;;;;;6.80;3.65;;;19.20;97.10;;;;;;5069170;28;20395;-85
2022/07/07 03:10:30;;;;;;;4.57;3.08;;;19.20;97.90;;;;;;5069874;28;20043;-86
2022/07/07 03:12:56;;;;;;;5.32;3.60;;;19.20;98.30;;;;;;5069627;28;20041;-86
2022/07/07 03:15:21;;;;;;;8.88;4.18;;;19.20;98.50;;;;;;5070098;28;20028;-85
2022/07/07 03:17:49;;;;;;;5.50;3.80;;;19.20;98.70;;;;;;5066593;22;20468;-64
2022/07/07 03:20:16;;;;;;;8.48;3.50;;;19.10;98.70;;;;;;5073918;28;20052;-64
2022/07/07 03:22:43;;;;;;;7.32;4.50;;;19.10;98.60;;;;;;5068178;28;20036;-64
2022/07/07 03:25:10;;;;;;;6.45;3.45;;;19.10;98.80;;;;;;5069723;28;20534;-67
2022/07/07 03:27:37;;;;;;;6.53;3.40;;;19.10;98.90;;;;;;5069541;28;20035;-64
2022/07/07 03:30:05;;;;;;;5.28;3.30;;;19.10;98.90;;;;;;5069786;28;20039;-65
2022/07/07 03:32:32;;;;;;;5.90;3.60;;;19.10;99.00;;;;;;5069848;28;20401;-64
2022/07/07 03:34:58;;;;;;;7.00;4.00;;;19.10;98.90;;;;;;5070210;28;20027;-63
2022/07/07 03:37:24;;;;;;;7.03;3.30;;;19.10;99.00;;;;;;5069082;28;20040;-65
2022/07/07 03:39:51;;;;;;;5.57;3.00;;;19.10;99.00;;;;;;5069930;28;20035;-63
2022/07/07 03:42:17;;;;;;;4.72;3.53;;;19.10;99.00;;;;;;5080501;28;20028;-64
2022/07/07 03:44:43;;;;;;;6.93;3.80;;;19.10;99.00;;;;;;5090149;28;20373;-63
2022/07/07 03:47:11;;;;;;;6.00;3.33;;;19.10;99.10;;;;;;5089924;28;20028;-64
2022/07/07 03:49:38;;;;;;;5.33;2.97;;;19.10;99.00;;;;;;5089919;28;20123;-64
2022/07/07 03:52:04;;;;;;;5.90;3.25;;;19.10;99.10;;;;;;5089474;28;20788;-63
2022/07/07 03:54:30;;;;;;;7.53;3.67;;;19.10;99.10;;;;;;5090404;28;20024;-64
2022/07/07 03:56:56;;;;;;;5.95;3.40;;;19.10;99.10;;;;;;5090188;28;20035;-64
2022/07/07 03:59:22;;;;;;;6.95;4.03;;;19.10;99.20;;;;;;5089886;28;20500;-64
2022/07/07 04:01:48;;;;;;;10.05;5.43;;;19.10;99.30;;;;;;5090107;28;20107;-64
2022/07/07 04:04:15;;;;;;;7.50;4.80;;;19.10;99.40;;;;;;5091166;28;20052;-64
2022/07/07 04:06:42;;;;;;;6.32;3.88;;;19.10;99.40;;;;;;5094039;28;20050;-63
2022/07/07 04:09:08;;;;;;;6.32;3.40;;;19.10;99.40;;;;;;5093326;28;20477;-64
2022/07/07 04:11:34;;;;;;;6.18;3.40;;;19.10;99.60;;;;;;5094106;28;20072;-64
2022/07/07 04:14:01;;;;;;;6.35;3.50;;;19.10;99.70;;;;;;5094054;28;20036;-64
2022/07/07 04:16:29;;;;;;;5.78;3.38;;;19.10;99.70;;;;;;5093693;28;20031;-63
2022/07/07 04:18:56;;;;;;;7.22;3.67;;;19.10;99.80;;;;;;5093361;28;20082;-64
2022/07/07 04:21:22;;;;;;;7.35;3.92;;;19.10;99.90;;;;;;5093951;28;20047;-64
2022/07/07 04:23:48;;;;;;;5.80;3.65;;;19.10;99.90;;;;;;5093277;28;20733;-63
2022/07/07 04:26:14;;;;;;;7.25;3.60;;;19.10;99.90;;;;;;5088742;28;20028;-65
2022/07/07 04:28:40;;;;;;;7.13;3.63;;;19.10;99.90;;;;;;5072899;28;20024;-64
2022/07/07 04:31:05;;;;;;;8.73;3.42;;;19.10;99.90;;;;;;5073221;28;20135;-64
2022/07/07 04:33:32;;;;;;;8.70;3.88;;;19.10;99.90;;;;;;5073535;28;20116;-65
2022/07/07 04:35:58;;;;;;;6.97;3.65;;;19.10;99.90;;;;;;5073002;28;20449;-64
2022/07/07 04:38:23;;;;;;;10.35;4.40;;;19.00;99.90;;;;;;5072611;28;20043;-64
2022/07/07 04:40:49;;;;;;;6.13;4.25;;;19.00;99.90;;;;;;5073283;28;20633;-64
2022/07/07 04:43:15;;;;;;;8.13;4.65;;;19.00;99.90;;;;;;5073114;28;20044;-64
2022/07/07 04:45:41;;;;;;;11.15;4.93;;;18.90;99.90;;;;;;5071987;28;20060;-63
2022/07/07 04:48:08;;;;;;;9.38;4.95;;;18.80;99.90;;;;;;5071602;28;20122;-64
2022/07/07 04:50:34;;;;;;;10.52;6.45;;;18.80;99.90;;;;;;5072865;28;20044;-64
2022/07/07 04:53:00;;;;;;;7.75;5.07;;;18.70;99.90;;;;;;5072659;28;20040;-64
2022/07/07 04:55:26;;;;;;;9.23;5.32;;;18.60;99.90;;;;;;5073364;28;20400;-64
2022/07/07 04:57:52;;;;;;;10.30;5.22;;;18.60;99.90;;;;;;5072615;28;20028;-64
2022/07/07 05:00:18;;;;;;;8.90;4.72;;;18.60;99.90;;;;;;5072641;28;20135;-65
2022/07/07 05:02:44;;;;;;;9.85;5.70;;;18.60;99.90;;;;;;5072743;28;20055;-65
2022/07/07 05:05:10;;;;;;;8.38;5.10;;;18.50;99.90;;;;;;5072831;28;20470;-65
2022/07/07 05:07:36;;;;;;;10.95;5.50;;;18.50;99.90;;;;;;5071674;28;20511;-66
2022/07/07 05:10:02;;;;;;;8.85;5.28;;;18.50;99.90;;;;;;5071486;28;20032;-66
2022/07/07 05:12:28;;;;;;;8.63;4.68;;;18.50;99.90;;;;;;5071513;28;20025;-64
2022/07/07 05:14:54;;;;;;;7.82;4.30;;;18.50;99.90;;;;;;5072267;28;20024;-65
2022/07/07 05:17:20;;;;;;;7.60;4.15;;;18.50;99.90;;;;;;5068884;28;20038;-64
2022/07/07 05:19:46;;;;;;;7.93;4.10;;;18.50;99.90;;;;;;5071392;28;20108;-65
2022/07/07 05:22:12;;;;;;;5.75;4.03;;;18.50;99.90;;;;;;5070880;28;20028;-65
2022/07/07 05:24:38;;;;;;;7.15;3.47;;;18.50;99.90;;;;;;5072620;28;20511;-65
2022/07/07 05:27:05;;;;;;;6.60;3.70;;;18.40;99.90;;;;;;5071374;28;20059;-64
2022/07/07 05:29:31;;;;;;;6.78;3.38;;;18.40;99.90;;;;;;5072255;28;20025;-66
2022/07/07 05:31:57;;;;;;;5.68;3.38;;;18.40;99.90;;;;;;5072278;28;20025;-64
2022/07/07 05:34:23;;;;;;;4.70;2.97;;;18.40;99.90;;;;;;5072168;28;20029;-66
2022/07/07 05:36:49;;;;;;;7.47;3.40;;;18.40;99.90;;;;;;5072004;28;20027;-66
2022/07/07 05:39:15;;;;;;;6.90;2.88;;;18.30;99.90;;;;;;5071614;28;20024;-66
2022/07/07 05:41:42;;;;;;;6.72;3.00;;;18.30;99.90;;;;;;5072083;28;20036;-66
2022/07/07 05:44:08;;;;;;;4.43;2.55;;;18.30;99.90;;;;;;5072049;28;20496;-66
2022/07/07 05:46:35;;;;;;;5.32;2.70;;;18.30;99.90;;;;;;5071920;28;20029;-66
2022/07/07 05:49:01;;;;;;;4.80;2.63;;;18.30;99.90;;;;;;5071598;28;20123;-66
2022/07/07 05:51:27;;;;;;;5.82;2.60;;;18.30;99.90;;;;;;5071957;28;20025;-66
2022/07/07 05:53:53;;;;;;;6.70;3.42;;;18.30;99.90;;;;;;5071293;28;20028;-66
2022/07/07 05:56:19;;;;;;;7.22;3.20;;;18.30;99.90;;;;;;5071929;28;20120;-66
2022/07/07 05:58:45;;;;;;;7.15;4.68;;;18.30;99.90;;;;;;5071603;28;20673;-66
2022/07/07 06:01:12;;;;;;;7.72;3.55;;;18.30;99.90;;;;;;5071871;28;20024;-66
2022/07/07 06:03:38;;;;;;;5.35;2.92;;;18.30;99.90;;;;;;5071345;28;20043;-66
2022/07/07 06:06:04;;;;;;;4.60;3.20;;;18.30;99.90;;;;;;5071525;28;20400;-66
2022/07/07 06:08:30;;;;;;;5.63;3.15;;;18.30;99.90;;;;;;5070828;28;20063;-65
2022/07/07 06:10:56;;;;;;;8.48;3.85;;;18.30;99.90;;;;;;5071329;28;20033;-65
2022/07/07 06:13:22;;;;;;;6.53;3.03;;;18.30;99.90;;;;;;5071496;28;20362;-66
2022/07/07 06:15:48;;;;;;;4.93;2.83;;;18.30;99.90;;;;;;5071306;28;20067;-66
2022/07/07 06:18:14;;;;;;;5.72;3.15;;;18.30;99.90;;;;;;5071033;28;20036;-66
2022/07/07 06:20:40;;;;;;;5.55;2.90;;;18.40;99.90;;;;;;5071307;28;20027;-66
2022/07/07 06:23:06;;;;;;;5.95;3.05;;;18.30;99.90;;;;;;5069211;28;20064;-66
2022/07/07 06:25:34;;;;;;;4.57;2.85;;;18.30;99.90;;;;;;5071172;28;20028;-66
2022/07/07 06:28:00;;;;;;;5.90;2.50;;;18.30;99.90;;;;;;5069490;28;20028;-66
2022/07/07 06:30:26;;;;;;;4.70;2.75;;;18.40;99.90;;;;;;5071238;28;20032;-66
2022/07/07 06:32:52;;;;;;;4.70;2.90;;;18.40;99.90;;;;;;5070836;28;20036;-66
2022/07/07 06:35:21;;;;;;;6.15;3.03;;;18.30;99.90;;;;;;5071091;28;20036;-66
2022/07/07 06:37:47;;;;;;;3.72;2.50;;;18.30;99.90;;;;;;5070284;28;20110;-66
2022/07/07 06:40:14;;;;;;;4.28;2.67;;;18.30;99.90;;;;;;5070740;28;20021;-65
2022/07/07 06:42:40;;;;;;;7.30;2.38;;;18.40;99.90;;;;;;5070712;28;20151;-65
2022/07/07 06:45:12;;;;;;;4.68;2.30;;;18.40;99.90;;;;;;5069368;28;20036;-66
2022/07/07 06:47:38;;;;;;;3.90;2.30;;;18.40;99.90;;;;;;5070541;28;20099;-65
2022/07/07 06:50:04;;;;;;;3.50;2.20;;;18.50;99.90;;;;;;5070691;28;20025;-66
2022/07/07 06:52:30;;;;;;;4.22;1.90;;;18.50;99.90;;;;;;5069928;28;20029;-66
2022/07/07 06:54:57;;;;;;;2.78;1.40;;;18.50;99.90;;;;;;5070528;28;20029;-68
2022/07/07 06:57:22;;;;;;;5.25;1.80;;;18.60;99.90;;;;;;5070225;28;20105;-66
2022/07/07 06:59:49;;;;;;;4.60;1.50;;;18.60;99.90;;;;;;5070120;28;20537;-66
2022/07/07 07:02:15;;;;;;;3.25;1.08;;;18.60;99.90;;;;;;5070446;28;20033;-66
2022/07/07 07:04:41;;;;;;;3.78;1.27;;;18.70;99.90;;;;;;5070447;28;20051;-66
2022/07/07 07:07:06;;;;;;;3.45;1.02;;;18.70;99.90;;;;;;5069489;28;20074;-65
2022/07/07 07:09:32;;;;;;;4.38;1.10;;;18.80;99.90;;;;;;5070337;28;20109;-65
2022/07/07 07:11:58;;;;;;;4.88;1.20;;;18.80;99.90;;;;;;5070096;28;20119;-65
2022/07/07 07:14:24;;;;;;;3.38;0.90;;;18.80;99.90;;;;;;5070494;28;20025;-65
2022/07/07 07:16:50;;;;;;;3.70;1.02;;;18.70;99.90;;;;;;5070149;28;20043;-66
2022/07/07 07:19:16;;;;;;;2.95;1.00;;;18.80;99.90;;;;;;5070117;28;20029;-65
2022/07/07 07:21:43;;;;;;;4.22;1.00;;;18.80;99.90;;;;;;5070148;28;20064;-65
2022/07/07 07:24:09;;;;;;;4.13;0.90;;;18.90;99.90;;;;;;5069838;28;20028;-63
2022/07/07 07:26:35;;;;;;;8.02;1.33;;;18.90;99.90;;;;;;5070464;28;20032;-66
2022/07/07 07:29:00;;;;;;;7.32;1.42;;;18.90;99.90;;;;;;5069875;28;20060;-65
2022/07/07 07:31:26;;;;;;;3.47;1.08;;;18.90;99.90;;;;;;5069746;28;20040;-65
2022/07/07 07:33:52;;;;;;;4.10;1.00;;;18.90;99.90;;;;;;5069843;28;20074;-65
2022/07/07 07:36:18;;;;;;;8.10;1.40;;;18.90;99.90;;;;;;5069717;28;20385;-65
2022/07/07 07:38:44;;;;;;;5.57;1.30;;;18.90;99.90;;;;;;5069003;28;20032;-65
2022/07/07 07:41:12;;;;;;;5.07;1.00;;;18.90;99.90;;;;;;5069833;28;20029;-65
2022/07/07 07:43:39;;;;;;;4.13;0.93;;;18.90;99.90;;;;;;5070642;28;20107;-65
2022/07/07 07:46:05;;;;;;;7.18;1.30;;;18.90;99.90;;;;;;5069423;28;20709;-63
2022/07/07 07:48:31;;;;;;;7.55;1.60;;;18.90;99.90;;;;;;5070569;28;20036;-66
2022/07/07 07:50:57;;;;;;;6.30;1.38;;;18.90;99.90;;;;;;5070817;28;20028;-66
2022/07/07 07:53:23;;;;;;;4.07;1.05;;;18.90;99.90;;;;;;5070753;28;20035;-66
2022/07/07 07:55:50;;;;;;;11.60;1.45;;;18.90;99.80;;;;;;5070802;28;20554;-65
2022/07/07 07:58:16;;;;;;;6.47;1.23;;;18.90;99.90;;;;;;5070523;28;20205;-64
2022/07/07 08:00:42;;;;;;;7.30;1.45;;;18.90;99.90;;;;;;5070378;28;20030;-65
2022/07/07 08:03:08;;;;;;;5.53;0.98;;;18.90;99.90;;;;;;5070756;28;20029;-65
2022/07/07 08:05:34;;;;;;;7.20;1.58;;;18.90;99.80;;;;;;5070785;28;20071;-65
2022/07/07 08:08:00;;;;;;;8.80;1.83;;;18.90;99.60;;;;;;5070516;28;20032;-65
2022/07/07 08:10:26;;;;;;;6.40;1.10;;;18.90;99.50;;;;;;5070439;28;20083;-65
2022/07/07 08:12:53;;;;;;;5.82;1.30;;;18.90;99.30;;;;;;5070696;28;20493;-65
2022/07/07 08:15:19;;;;;;;6.22;1.50;;;18.90;98.80;;;;;;5070910;28;20041;-66
2022/07/07 08:17:45;;;;;;;7.35;1.90;;;18.90;98.80;;;;;;5070787;28;20070;-65
2022/07/07 08:20:12;;;;;;;6.43;1.63;;;18.90;98.60;;;;;;5070669;28;20031;-64
2022/07/07 08:22:38;;;;;;;5.40;1.55;;;18.90;98.60;;;;;;5070704;28;20039;-65
2022/07/07 08:25:05;;;;;;;8.30;0.90;;;18.90;98.70;;;;;;5070634;28;20028;-65
2022/07/07 08:27:31;;;;;;;5.15;1.17;;;18.80;99.00;;;;;;5070676;28;20052;-64
2022/07/07 08:29:58;;;;;;;5.57;1.27;;;18.80;99.20;;;;;;5070286;28;20079;-64
2022/07/07 08:32:24;;;;;;;11.35;4.90;;;18.80;99.10;;;;;;5069233;28;20035;-64
2022/07/07 08:34:50;;;;;;;6.47;1.65;;;18.90;98.70;;;;;;5070581;28;20029;-65
2022/07/07 08:37:16;;;;;;;6.10;1.50;;;18.90;98.50;;;;;;5070574;28;20044;-65
2022/07/07 08:39:42;;;;;;;3.65;1.15;;;19.00;98.10;;;;;;5070044;28;20063;-65
2022/07/07 08:42:08;;;;;;;4.50;1.30;;;19.00;98.40;;;;;;5070645;28;20025;-65
2022/07/07 08:44:35;;;;;;;5.45;1.25;;;19.00;98.10;;;;;;5070504;28;20275;-65
2022/07/07 08:47:01;;;;;;;5.50;1.00;;;19.00;98.00;;;;;;5070404;28;20523;-65
2022/07/07 08:49:28;;;;;;;7.40;1.60;;;19.00;97.90;;;;;;5070295;28;20032;-65
2022/07/07 08:51:55;;;;;;;2.88;1.10;;;19.10;98.20;;;;;;5072551;28;20047;-64
2022/07/07 08:54:24;;;;;;;6.20;1.00;;;19.10;98.60;;;;;;5074263;28;20025;-65
2022/07/07 08:56:50;;;;;;;4.68;1.40;;;19.00;98.10;;;;;;5074449;28;20040;-66
2022/07/07 08:59:17;;;;;;;4.43;1.13;;;19.00;98.20;;;;;;5073817;28;20033;-65
2022/07/07 09:01:56;;;;;;;4.63;1.05;;;19.00;98.00;;;;;;5074463;28;20035;-65
2022/07/07 09:04:23;;;;;;;3.75;0.90;;;19.00;98.30;;;;;;5074003;28;20511;-65
2022/07/07 09:06:57;;;;;;;8.80;1.48;;;19.10;97.70;;;;;;5073632;28;20043;-65
2022/07/07 09:09:40;;;;;;;4.45;1.20;;;19.10;97.50;;;;;;5073588;28;20032;-65
2022/07/07 09:12:08;;;;;;;3.88;1.00;;;19.20;97.50;;;;;;5073738;28;20024;-64
2022/07/07 09:14:38;;;;;;;5.18;0.90;;;19.20;97.40;;;;;;5073677;28;20035;-65
2022/07/07 09:17:19;;;;;;;3.65;1.00;;;19.20;97.30;;;;;;5073534;28;20396;-66
2022/07/07 09:20:00;;;;;;;4.30;1.05;;;19.20;97.30;;;;;;5073374;28;20393;-65
2022/07/07 09:22:47;;;;;;;1.90;0.60;;;19.10;97.30;;;;;;5073637;28;20103;-65
2022/07/07 09:25:17;;;;;;;5.57;1.30;;;19.10;97.60;;;;;;5073597;28;20024;-66
2022/07/07 09:27:55;;;;;;;4.85;0.95;;;19.10;98.00;;;;;;5073238;28;20432;-65
2022/07/07 09:30:34;;;;;;;4.57;1.65;;;19.00;99.00;;;;;;5073253;28;20031;-65
2022/07/07 09:33:17;;;;;;;5.85;1.70;;;18.90;99.80;;;;;;5073370;28;20028;-65
2022/07/07 09:38:31;;;;;;;3.35;1.00;;;18.70;99.90;;;;;;5073404;28;20074;-66
2022/07/07 09:41:05;;;;;;;5.88;1.00;;;18.50;99.90;;;;;;5073322;28;20035;-65
2022/07/07 09:43:52;;;;;;;8.05;1.13;;;18.40;99.90;;;;;;5072098;28;20493;-65
2022/07/07 09:46:22;;;;;;;3.10;0.90;;;18.30;99.90;;;;;;5073024;28;20081;-66
2022/07/07 09:48:50;;;;;;;4.32;1.40;;;18.20;99.90;;;;;;5072960;28;20029;-64
2022/07/07 09:51:24;;;;;;;5.60;1.70;;;18.20;99.90;;;;;;5073023;28;20051;-65
2022/07/07 09:53:59;;;;;;;8.13;1.63;;;18.20;99.90;;;;;;5073079;28;20029;-64
2022/07/07 09:56:36;;;;;;;6.65;2.08;;;18.30;99.90;;;;;;5072807;28;20110;-65
2022/07/07 09:59:05;;;;;;;6.72;1.63;;;18.50;99.90;;;;;;5072665;28;20024;-65
2022/07/07 10:01:32;;;;;;;;;;;18.50;99.90;;;;;;5073305;28;20031;-66
2022/07/07 10:04:01;;;;;;;15.07;1.80;;;18.60;99.90;;;;;;5072893;28;20005;-65
2022/07/07 10:06:29;;;;;;;6.07;2.53;;;18.70;99.90;;;;;;5073108;28;20660;-65
2022/07/07 10:09:02;;;;;;;7.70;2.00;;;18.80;99.90;;;;;;5072844;28;20476;-65
2022/07/07 10:11:53;;;;;;;5.60;1.67;;;18.80;99.90;;;;;;5072610;28;20331;-65
2022/07/07 10:14:26;;;;;;;4.03;1.40;;;18.80;99.90;;;;;;5062694;28;20037;-65
2022/07/07 10:16:53;;;;;;;3.47;0.85;;;18.90;99.90;;;;;;5072420;28;20111;-66
2022/07/07 10:19:25;;;;;;;4.13;1.00;;;19.00;99.90;;;;;;5072286;28;20311;-65
2022/07/07 10:21:54;;;;;;;2.95;0.98;;;19.00;99.90;;;;;;5072895;28;20028;-66
2022/07/07 10:24:22;;;;;;;;;;;19.00;99.90;;;;;;5072780;28;20036;-65
2022/07/07 10:26:55;;;;;;;3.95;1.27;;;19.00;99.90;;;;;;5071043;28;19915;-66
2022/07/07 10:29:41;;;;;;;2.50;0.90;;;18.80;99.90;;;;;;5072143;28;20047;-66
2022/07/07 10:32:13;;;;;;;4.40;1.00;;;18.80;99.90;;;;;;5072190;28;20532;-65
2022/07/07 10:34:50;;;;;;;5.63;1.30;;;18.80;99.90;;;;;;5072192;28;20037;-65
2022/07/07 10:37:17;;;;;;;4.53;1.02;;;18.70;99.90;;;;;;5072296;28;20385;-65
2022/07/07 10:39:48;;;;;;;3.33;1.10;;;18.70;99.90;;;;;;5071832;28;20047;-65
2022/07/07 10:42:17;;;;;;;5.53;1.23;;;18.70;99.90;;;;;;5071928;28;20033;-65
2022/07/07 10:44:46;;;;;;;5.28;1.20;;;18.70;99.90;;;;;;5071932;28;20063;-65
2022/07/07 10:47:12;;;;;;;5.07;1.10;;;18.70;99.90;;;;;;5071959;28;20032;-65
2022/07/07 10:49:43;;;;;;;6.05;1.17;;;18.70;99.90;;;;;;5071854;28;20028;-66
2022/07/07 10:52:14;;;;;;;3.40;0.85;;;18.70;99.90;;;;;;5071814;28;20111;-65
2022/07/07 10:54:45;;;;;;;4.50;0.98;;;18.70;99.90;;;;;;5071767;28;20029;-65
2022/07/07 10:57:22;;;;;;;5.55;1.20;;;18.70;99.90;;;;;;5071520;28;20038;-66
2022/07/07 11:00:09;;;;;;;7.18;1.40;;;18.70;99.90;;;;;;5085103;22;20458;-69
2022/07/07 11:02:48;;;;;;;2.75;0.82;;;18.80;99.90;;;;;;5071368;28;20039;-68
2022/07/07 11:05:14;;;;;;;4.03;1.05;;;18.70;99.90;;;;;;5071666;28;20517;-68
2022/07/07 11:07:56;;;;;;;3.03;0.80;;;18.70;99.90;;;;;;5071149;28;20025;-68
2022/07/07 11:10:44;;;;;;;3.85;1.70;;;18.70;99.90;;;;;;5071448;28;20466;-70
2022/07/07 11:13:21;;;;;;;3.97;1.63;;;18.60;99.90;;;;;;5070837;28;20032;-69
2022/07/07 11:15:52;;;;;;;5.00;1.42;;;18.60;99.90;;;;;;5071396;28;20083;-69
2022/07/07 11:18:19;;;;;;;5.97;1.77;;;18.60;99.90;;;;;;5053360;28;20416;-68
2022/07/07 11:20:57;;;;;;;8.70;1.75;;;18.50;99.90;;;;;;5071031;28;20028;-68
2022/07/07 11:23:26;;;;;;;4.50;0.98;;;18.50;99.90;;;;;;5053225;28;20113;-69
2022/07/07 11:25:57;;;;;;;4.28;1.20;;;18.50;99.90;;;;;;5071039;28;20041;-69
2022/07/07 11:28:25;;;;;;;3.55;1.02;;;18.50;99.90;;;;;;5070953;28;20379;-70
2022/07/07 11:31:04;;;;;;;2.38;1.15;;;18.60;99.90;;;;;;5071352;28;20025;-69
2022/07/07 11:33:30;;;;;;;5.22;1.67;;;18.70;99.90;;;;;;5070916;28;20497;-69
2022/07/07 11:35:57;;;;;;;3.60;0.93;;;18.70;99.90;;;;;;5052900;28;20056;-69
2022/07/07 11:38:28;;;;;;;2.95;0.98;;;18.90;99.90;;;;;;5070744;28;20381;-69
2022/07/07 11:40:54;;;;;;;2.03;0.85;;;19.10;99.90;;;;;;5070884;28;20024;-70
2022/07/07 11:43:24;;;;;;;3.00;0.98;;;19.20;99.90;;;;;;5070901;28;20024;-69
2022/07/07 11:45:51;;;;;;;4.65;1.13;;;19.20;99.90;;;;;;5070718;28;20052;-69
2022/07/07 11:48:17;;;;;;;2.38;1.05;;;19.30;99.90;;;;;;5070721;28;20266;-69
2022/07/07 11:50:45;;;;;;;3.65;1.17;;;19.30;99.90;;;;;;5070585;28;20037;-68
2022/07/07 11:53:11;;;;;;;6.30;1.75;;;19.30;99.90;;;;;;5070888;28;20032;-69
2022/07/07 11:55:37;;;;;;;2.97;0.73;;;19.20;99.90;;;;;;5070918;28;20098;-68
2022/07/07 11:58:08;;;;;;;2.42;1.02;;;19.10;99.90;;;;;;5070752;28;20021;-68
2022/07/07 12:00:36;;;;;;;4.38;1.52;;;19.10;99.90;;;;;;5070536;28;20375;-67
2022/07/07 12:03:04;;;;;;;4.93;1.52;;;19.00;99.90;;;;;;5070660;28;20029;-67
2022/07/07 12:05:43;;;;;;;3.75;1.20;;;19.00;99.90;;;;;;5070699;28;20059;-68
2022/07/07 12:08:11;;;;;;;2.58;0.93;;;19.00;99.90;;;;;;5069538;28;20382;-68
2022/07/07 12:10:48;;;;;;;2.50;0.98;;;19.10;99.90;;;;;;5052440;28;20040;-68
2022/07/07 12:13:15;;;;;;;3.10;1.02;;;19.20;99.90;;;;;;5052880;28;20032;-68
2022/07/07 12:15:46;;;;;;;3.25;0.80;;;19.30;99.90;;;;;;5070398;28;20086;-68
2022/07/07 12:18:13;;;;;;;4.20;1.20;;;19.40;99.90;;;;;;5070530;28;20157;-68
2022/07/07 12:20:40;;;;;;;2.60;1.20;;;19.50;99.90;;;;;;5070385;28;20502;-68
2022/07/07 12:23:09;;;;;;;3.55;1.08;;;19.60;99.90;;;;;;5070644;28;20481;-68
2022/07/07 12:25:36;;;;;;;4.55;1.65;;;19.70;99.90;;;;;;5054240;28;20109;-68
2022/07/07 12:28:07;;;;;;;5.15;1.70;;;19.60;99.90;;;;;;5074744;28;20032;-68
2022/07/07 12:30:52;;;;;;;3.63;1.40;;;19.70;99.90;;;;;;5074094;28;20028;-68
2022/07/07 12:33:33;;;;;;;3.08;1.00;;;19.70;99.70;;;;;;5074052;28;20059;-68
2022/07/07 12:36:11;;;;;;;2.92;1.00;;;19.60;99.90;;;;;;5073957;28;20099;-68
2022/07/07 12:38:52;;;;;;;4.15;1.20;;;19.50;99.90;;;;;;5073776;28;20036;-68
2022/07/07 12:41:34;;;;;;;2.03;0.80;;;19.50;99.90;;;;;;5074098;28;20374;-68
2022/07/07 12:44:22;;;;;;;3.88;1.00;;;19.40;99.90;;;;;;5074102;28;20126;-68
2022/07/07 12:46:49;;;;;;;5.47;1.55;;;19.30;99.90;;;;;;5073859;28;20438;-68
2022/07/07 12:49:15;;;;;;;3.90;1.27;;;19.20;99.90;;;;;;5073741;28;20437;-69
2022/07/07 12:51:49;;;;;;;3.92;1.23;;;19.10;99.90;;;;;;5073856;28;20099;-69
2022/07/07 12:54:25;;;;;;;3.42;1.17;;;19.10;99.90;;;;;;5074027;28;20024;-68